createdAt,value
2022-10-20T00:01:27.347Z,10.20
2022-10-20T00:03:54.894Z,10.00
2022-10-20T00:06:25.141Z,10.40
2022-10-20T00:08:52.580Z,10.10
2022-10-20T00:11:21.244Z,10.15
2022-10-20T00:13:50.411Z,10.40
2022-10-20T00:16:17.900Z,10.55
2022-10-20T00:18:45.134Z,10.57
2022-10-20T00:21:19.494Z,10.57
2022-10-20T00:23:46.086Z,10.57
2022-10-20T00:26:24.091Z,9.98
2022-10-20T00:28:51.453Z,11.07
2022-10-20T00:31:19.834Z,10.35
2022-10-20T00:33:57.310Z,11.55
2022-10-20T00:36:24.693Z,10.50
2022-10-20T00:38:51.926Z,12.02
2022-10-20T00:41:25.780Z,11.90
2022-10-20T00:43:56.930Z,11.68
2022-10-20T00:46:27.210Z,11.85
2022-10-20T00:48:59.688Z,12.18
2022-10-20T00:51:29.790Z,12.15
2022-10-20T00:54:04.265Z,12.55
2022-10-20T00:56:31.141Z,12.75
2022-10-20T00:58:57.820Z,12.80
2022-10-20T01:01:25.198Z,12.85
2022-10-20T01:03:52.698Z,13.10
2022-10-20T01:06:22.154Z,12.27
2022-10-20T01:08:53.179Z,12.20
2022-10-20T01:11:33.119Z,12.25
2022-10-20T01:14:11.309Z,12.60
2022-10-20T01:16:43.733Z,13.25
2022-10-20T01:19:26.274Z,12.18
2022-10-20T01:22:16.846Z,12.52
2022-10-20T01:24:57.309Z,12.70
2022-10-20T01:27:27.153Z,12.48
2022-10-20T01:30:10.403Z,12.20
2022-10-20T01:32:58.279Z,12.48
2022-10-20T01:35:38.631Z,13.30
2022-10-20T01:38:12.427Z,12.50
2022-10-20T01:40:47.166Z,11.25
2022-10-20T01:43:17.878Z,12.77
2022-10-20T01:45:47.478Z,12.20
2022-10-20T01:48:19.606Z,12.32
2022-10-20T01:50:49.564Z,12.55
2022-10-20T01:53:16.347Z,12.63
2022-10-20T01:55:45.248Z,13.48
2022-10-20T01:58:43.087Z,12.52
2022-10-20T02:01:40.960Z,13.07
2022-10-20T02:04:09.331Z,11.75
2022-10-20T02:06:55.144Z,12.88
2022-10-20T02:09:30.909Z,12.55
2022-10-20T02:14:33.352Z,11.23
2022-10-20T02:17:08.369Z,12.73
2022-10-20T02:19:39.759Z,11.67
2022-10-20T02:22:08.762Z,10.02
2022-10-20T02:24:38.276Z,11.52
2022-10-20T02:27:11.866Z,10.63
2022-10-20T02:30:14.291Z,10.23
2022-10-20T02:32:44.204Z,13.32
2022-10-20T02:35:15.205Z,12.48
2022-10-20T02:37:41.849Z,12.30
2022-10-20T02:40:08.746Z,12.48
2022-10-20T02:42:35.863Z,12.30
2022-10-20T02:45:04.295Z,12.93
2022-10-20T02:47:30.760Z,13.05
2022-10-20T02:49:57.246Z,13.40
2022-10-20T02:52:23.873Z,13.57
2022-10-20T02:54:52.792Z,12.07
2022-10-20T02:57:19.329Z,13.65
2022-10-20T02:59:47.524Z,12.50
2022-10-20T03:02:14.051Z,12.80
2022-10-20T03:04:42.851Z,12.90
2022-10-20T03:07:09.931Z,13.02
2022-10-20T03:09:36.867Z,11.30
2022-10-20T03:12:03.462Z,12.25
2022-10-20T03:14:36.059Z,12.27
2022-10-20T03:17:02.534Z,12.65
2022-10-20T03:19:29.031Z,14.15
2022-10-20T03:21:55.657Z,13.25
2022-10-20T03:24:22.198Z,13.30
2022-10-20T03:26:51.049Z,13.32
2022-10-20T03:29:17.910Z,11.10
2022-10-20T03:31:44.419Z,12.93
2022-10-20T03:34:12.746Z,13.68
2022-10-20T03:36:46.984Z,13.38
2022-10-20T03:39:13.481Z,14.57
2022-10-20T03:41:40.022Z,13.38
2022-10-20T03:44:08.266Z,13.70
2022-10-20T03:46:35.014Z,13.95
2022-10-20T03:49:01.520Z,14.25
2022-10-20T03:51:28.514Z,14.15
2022-10-20T03:53:54.986Z,14.38
2022-10-20T03:56:21.831Z,14.57
2022-10-20T03:58:53.539Z,16.13
2022-10-20T04:01:24.443Z,15.80
2022-10-20T04:03:50.988Z,15.27
2022-10-20T04:06:22.100Z,16.80
2022-10-20T04:08:48.684Z,15.85
2022-10-20T04:11:15.180Z,14.88
2022-10-20T04:13:43.408Z,14.77
2022-10-20T04:16:09.997Z,15.25
2022-10-20T04:18:36.577Z,17.98
2022-10-20T04:21:05.347Z,14.82
2022-10-20T04:23:33.878Z,15.90
2022-10-20T04:26:00.461Z,16.75
2022-10-20T04:28:27.151Z,13.10
2022-10-20T04:30:54.576Z,14.57
2022-10-20T04:33:21.014Z,15.43
2022-10-20T04:35:47.775Z,15.73
2022-10-20T04:38:14.269Z,16.02
2022-10-20T04:40:41.043Z,16.65
2022-10-20T04:43:09.283Z,17.02
2022-10-20T04:45:36.769Z,16.08
2022-10-20T04:48:05.104Z,15.65
2022-10-20T04:50:33.337Z,15.02
2022-10-20T04:53:00.113Z,14.48
2022-10-20T04:55:26.597Z,14.85
2022-10-20T04:57:53.253Z,16.50
2022-10-20T05:00:19.875Z,15.57
2022-10-20T05:02:46.408Z,16.17
2022-10-20T05:05:17.499Z,16.67
2022-10-20T05:07:44.155Z,15.70
2022-10-20T05:10:10.674Z,15.35
2022-10-20T05:12:37.478Z,16.50
2022-10-20T05:15:04.620Z,15.63
2022-10-20T05:17:34.570Z,15.27
2022-10-20T05:20:02.762Z,14.75
2022-10-20T05:22:30.981Z,13.98
2022-10-20T05:25:12.782Z,12.15
2022-10-20T05:27:57.502Z,14.65
2022-10-20T05:30:24.434Z,15.57
2022-10-20T05:32:50.923Z,15.52
2022-10-20T05:35:17.757Z,16.90
2022-10-20T05:37:44.225Z,15.77
2022-10-20T05:40:11.540Z,17.02
2022-10-20T05:42:38.496Z,15.80
2022-10-20T05:45:06.180Z,16.73
2022-10-20T05:47:34.236Z,14.90
2022-10-20T05:50:02.623Z,16.13
2022-10-20T05:52:29.429Z,15.27
2022-10-20T05:54:57.989Z,13.05
2022-10-20T05:57:24.514Z,16.20
2022-10-20T05:59:51.201Z,13.60
2022-10-20T06:02:17.879Z,16.63
2022-10-20T06:04:44.530Z,15.52
2022-10-20T06:07:11.176Z,15.70
2022-10-20T06:09:38.452Z,14.82
2022-10-20T06:14:35.083Z,15.60
2022-10-20T06:17:01.662Z,14.70
2022-10-20T06:19:28.448Z,15.05
2022-10-20T06:21:54.907Z,15.77
2022-10-20T06:24:21.847Z,14.20
2022-10-20T06:26:48.414Z,15.32
2022-10-20T06:29:18.450Z,14.15
2022-10-20T06:31:50.018Z,13.63
2022-10-20T06:34:22.563Z,14.60
2022-10-20T06:36:49.711Z,13.80
2022-10-20T06:39:18.866Z,15.25
2022-10-20T06:41:53.955Z,14.82
2022-10-20T06:44:24.551Z,14.48
2022-10-20T06:46:54.809Z,13.57
2022-10-20T06:49:21.853Z,14.88
2022-10-20T06:51:48.420Z,14.93
2022-10-20T06:54:15.088Z,12.98
2022-10-20T06:56:45.355Z,12.75
2022-10-20T06:59:13.543Z,14.45
2022-10-20T07:01:42.400Z,13.35
2022-10-20T07:04:16.725Z,14.65
2022-10-20T07:06:45.727Z,12.63
2022-10-20T07:09:16.851Z,12.15
2022-10-20T07:11:47.722Z,14.20
2022-10-20T07:14:14.552Z,12.82
2022-10-20T07:16:41.313Z,11.48
2022-10-20T07:19:12.359Z,11.65
2022-10-20T07:21:41.635Z,10.90
2022-10-20T07:24:19.804Z,12.07
2022-10-20T07:26:46.567Z,14.20
2022-10-20T07:29:14.583Z,12.25
2022-10-20T07:31:46.516Z,11.00
2022-10-20T07:34:30.173Z,15.02
2022-10-20T07:36:59.423Z,13.68
2022-10-20T07:39:26.486Z,13.80
2022-10-20T07:41:53.298Z,11.68
2022-10-20T07:44:21.707Z,12.25
2022-10-20T07:46:48.276Z,15.27
2022-10-20T07:52:03.505Z,13.10
2022-10-20T07:54:30.503Z,12.95
2022-10-20T07:56:57.009Z,13.18
2022-10-20T07:59:24.559Z,11.68
2022-10-20T08:01:54.631Z,12.07
2022-10-20T08:04:22.701Z,11.38
2022-10-20T08:06:54.451Z,13.80
2022-10-20T08:09:20.968Z,11.88
2022-10-20T08:11:50.365Z,12.23
2022-10-20T08:14:19.578Z,11.90
2022-10-20T08:16:46.168Z,12.15
2022-10-20T08:20:01.010Z,13.13
2022-10-20T08:22:16.187Z,13.27
2022-10-20T08:24:51.234Z,13.02
2022-10-20T08:27:17.796Z,13.55
2022-10-20T08:29:50.833Z,11.73
2022-10-20T08:32:26.698Z,12.57
2022-10-20T08:34:55.175Z,11.60
2022-10-20T08:37:21.671Z,14.50
2022-10-20T08:39:48.497Z,13.57
2022-10-20T08:42:17.036Z,11.70
2022-10-20T08:44:46.801Z,12.20
2022-10-20T08:47:30.885Z,12.10
2022-10-20T08:50:00.835Z,10.45
2022-10-20T08:52:35.941Z,12.07
2022-10-20T08:55:05.226Z,10.80
2022-10-20T08:57:36.209Z,11.40
2022-10-20T09:00:25.753Z,10.40
2022-10-20T09:02:52.438Z,11.68
2022-10-20T09:05:25.809Z,12.00
2022-10-20T09:07:59.275Z,11.73
2022-10-20T09:10:36.777Z,10.38
2022-10-20T09:13:11.553Z,10.82
2022-10-20T09:15:38.718Z,11.18
2022-10-20T09:18:16.609Z,9.30
2022-10-20T09:20:53.713Z,10.50
2022-10-20T09:23:40.481Z,9.15
2022-10-20T09:26:37.651Z,9.82
2022-10-20T09:29:15.784Z,10.35
2022-10-20T09:31:52.149Z,10.00
2022-10-20T09:34:31.280Z,11.43
2022-10-20T09:37:06.781Z,11.10
2022-10-20T09:39:51.323Z,10.45
2022-10-20T09:42:25.787Z,11.70
2022-10-20T09:45:09.302Z,11.13
2022-10-20T09:47:35.858Z,11.35
2022-10-20T09:50:06.043Z,12.45
2022-10-20T09:52:52.140Z,12.63
2022-10-20T09:58:01.722Z,11.52
2022-10-20T10:00:37.167Z,10.90
2022-10-20T10:05:47.339Z,12.68
2022-10-20T10:08:15.665Z,12.80
2022-10-20T10:10:46.517Z,10.02
2022-10-20T10:13:27.020Z,11.30
2022-10-20T10:16:09.390Z,10.15
2022-10-20T10:18:37.958Z,11.73
2022-10-20T10:21:09.989Z,13.93
2022-10-20T10:23:50.672Z,13.57
2022-10-20T10:26:53.564Z,14.57
2022-10-20T10:29:42.254Z,14.23
2022-10-20T10:32:29.316Z,16.10
2022-10-20T10:35:08.058Z,15.90
2022-10-20T10:37:37.132Z,15.43
2022-10-20T10:40:20.766Z,15.55
2022-10-20T10:43:16.424Z,13.82
2022-10-20T10:45:44.737Z,16.08
2022-10-20T10:48:29.336Z,15.95
2022-10-20T10:51:53.441Z,16.60
2022-10-20T10:54:22.594Z,14.90
2022-10-20T10:56:54.168Z,14.10
2022-10-20T10:59:27.687Z,14.85
2022-10-20T11:02:05.966Z,15.05
2022-10-20T11:05:11.497Z,13.85
2022-10-20T11:07:43.380Z,13.02
2022-10-20T11:10:13.030Z,14.45
2022-10-20T11:12:51.637Z,13.05
2022-10-20T11:15:36.111Z,15.02
2022-10-20T11:18:35.009Z,13.88
2022-10-20T11:21:14.486Z,13.98
2022-10-20T11:23:40.888Z,12.90
2022-10-20T11:26:29.311Z,11.38
2022-10-20T11:28:57.756Z,10.82
2022-10-20T11:31:31.555Z,10.75
2022-10-20T11:34:14.291Z,11.00
2022-10-20T11:36:48.523Z,14.52
2022-10-20T11:39:34.225Z,14.45
2022-10-20T11:42:16.585Z,15.65
2022-10-20T11:44:45.988Z,14.68
2022-10-20T11:47:16.498Z,15.85
2022-10-20T11:49:44.194Z,13.95
2022-10-20T11:52:47.812Z,13.85
2022-10-20T11:55:40.746Z,13.48
2022-10-20T11:58:46.999Z,14.98
2022-10-20T12:01:35.785Z,13.77
2022-10-20T12:04:20.696Z,14.88
2022-10-20T12:07:15.429Z,14.13
2022-10-20T12:09:53.617Z,15.20
2022-10-20T12:12:30.996Z,14.63
2022-10-20T12:15:00.398Z,14.38
2022-10-20T12:17:34.695Z,14.43
2022-10-20T12:20:22.733Z,14.40
2022-10-20T12:22:52.038Z,13.20
2022-10-20T12:25:25.146Z,14.02
2022-10-20T12:28:23.022Z,13.45
2022-10-20T12:31:00.482Z,14.55
2022-10-20T12:33:51.666Z,17.77
2022-10-20T12:36:18.060Z,16.90
2022-10-20T12:38:53.890Z,14.02
2022-10-20T12:41:34.920Z,14.80
2022-10-20T12:44:18.733Z,14.45
2022-10-20T12:47:09.013Z,12.95
2022-10-20T12:49:42.206Z,12.27
2022-10-20T12:52:20.123Z,11.45
2022-10-20T12:54:48.778Z,12.18
2022-10-20T12:57:26.168Z,12.15
2022-10-20T12:59:55.423Z,12.13
2022-10-20T13:02:24.686Z,12.73
2022-10-20T13:04:58.368Z,13.82
2022-10-20T13:07:46.714Z,13.82
2022-10-20T13:10:28.534Z,14.65
2022-10-20T13:13:21.520Z,13.45
2022-10-20T13:15:55.732Z,12.30
2022-10-20T13:18:27.449Z,12.55
2022-10-20T13:21:30.504Z,10.93
2022-10-20T13:24:04.628Z,10.88
2022-10-20T13:26:43.515Z,11.90
2022-10-20T13:29:19.576Z,10.80
2022-10-20T13:32:15.639Z,11.95
2022-10-20T13:35:16.001Z,12.35
2022-10-20T13:37:52.846Z,12.23
2022-10-20T13:40:43.881Z,10.65
2022-10-20T13:43:26.582Z,11.05
2022-10-20T13:46:25.676Z,11.88
2022-10-20T13:49:12.625Z,11.80
2022-10-20T13:51:54.256Z,11.85
2022-10-20T13:54:29.548Z,11.50
2022-10-20T13:56:56.931Z,11.52
2022-10-20T13:59:26.946Z,10.77
2022-10-20T14:02:01.679Z,11.18
2022-10-20T14:04:31.561Z,12.48
2022-10-20T14:07:13.436Z,12.75
2022-10-20T14:09:45.252Z,11.40
2022-10-20T14:12:28.568Z,13.43
2022-10-20T14:15:09.357Z,14.15
2022-10-20T14:17:40.726Z,12.32
2022-10-20T14:20:29.142Z,11.98
2022-10-20T14:22:57.584Z,13.07
2022-10-20T14:25:24.598Z,13.10
2022-10-20T14:27:53.578Z,12.25
2022-10-20T14:30:22.868Z,14.90
2022-10-20T14:32:51.306Z,14.95
2022-10-20T14:35:31.334Z,13.55
2022-10-20T14:37:59.649Z,13.80
2022-10-20T14:40:30.889Z,13.85
2022-10-20T14:43:06.313Z,13.60
2022-10-20T14:45:38.488Z,13.70
2022-10-20T14:48:09.115Z,13.63
2022-10-20T14:50:40.822Z,11.77
2022-10-20T14:53:27.685Z,12.18
2022-10-20T14:55:56.052Z,13.05
2022-10-20T14:58:52.327Z,13.30
2022-10-20T15:01:26.230Z,13.50
2022-10-20T15:04:18.678Z,11.80
2022-10-20T15:06:45.307Z,11.40
2022-10-20T15:09:32.545Z,12.15
2022-10-20T15:12:04.210Z,13.00
2022-10-20T15:14:31.023Z,13.25
2022-10-20T15:16:59.276Z,12.13
2022-10-20T15:19:36.742Z,11.80
2022-10-20T15:25:10.288Z,12.13
2022-10-20T15:27:40.565Z,14.18
2022-10-20T15:30:17.745Z,11.65
2022-10-20T15:32:44.337Z,11.68
2022-10-20T15:35:22.314Z,11.90
2022-10-20T15:37:51.002Z,10.80
2022-10-20T15:40:17.981Z,13.00
2022-10-20T15:42:44.724Z,12.70
2022-10-20T15:45:16.989Z,12.77
2022-10-20T15:47:44.214Z,12.50
2022-10-20T15:50:11.060Z,13.02
2022-10-20T15:52:49.915Z,13.43
2022-10-20T15:55:30.658Z,12.88
2022-10-20T15:57:57.248Z,12.93
2022-10-20T16:00:25.767Z,13.40
2022-10-20T16:02:57.175Z,14.10
2022-10-20T16:05:24.757Z,13.15
2022-10-20T16:07:54.132Z,11.75
2022-10-20T16:10:23.115Z,13.80
2022-10-20T16:12:50.041Z,12.82
2022-10-20T16:15:18.933Z,13.50
2022-10-20T16:20:15.989Z,14.27
2022-10-20T16:22:42.488Z,14.32
2022-10-20T16:25:09.765Z,13.80
2022-10-20T16:27:36.797Z,14.48
2022-10-20T16:30:05.391Z,13.65
2022-10-20T16:32:34.560Z,16.17
2022-10-20T16:35:04.004Z,14.55
2022-10-20T16:37:32.143Z,16.48
2022-10-20T16:40:01.496Z,15.18
2022-10-20T16:42:30.409Z,14.32
2022-10-20T16:44:57.325Z,14.95
2022-10-20T16:47:27.432Z,15.82
2022-10-20T16:49:54.108Z,14.90
2022-10-20T16:52:20.744Z,15.23
2022-10-20T16:54:49.243Z,14.65
2022-10-20T16:57:15.797Z,14.57
2022-10-20T16:59:45.049Z,15.07
2022-10-20T17:02:14.496Z,16.95
2022-10-20T17:04:42.436Z,14.90
2022-10-20T17:07:08.911Z,15.00
2022-10-20T17:09:37.255Z,12.10
2022-10-20T17:12:04.055Z,13.15
2022-10-20T17:14:30.533Z,14.82
2022-10-20T17:17:04.287Z,14.13
2022-10-20T17:19:30.857Z,13.57
2022-10-20T17:21:57.438Z,14.05
2022-10-20T17:24:24.647Z,14.15
2022-10-20T17:26:51.147Z,14.18
2022-10-20T17:29:21.033Z,14.35
2022-10-20T17:31:52.518Z,14.93
2022-10-20T17:34:22.560Z,13.82
2022-10-20T17:36:49.018Z,14.13
2022-10-20T17:39:22.109Z,14.13
2022-10-20T17:41:48.690Z,14.05
2022-10-20T17:44:15.181Z,14.60
2022-10-20T17:46:43.448Z,13.93
2022-10-20T17:49:09.983Z,14.35
2022-10-20T17:51:36.614Z,14.75
2022-10-20T17:54:05.300Z,12.90
2022-10-20T17:56:40.156Z,13.30
2022-10-20T17:59:07.963Z,14.83
2022-10-20T18:01:42.642Z,16.35
2022-10-20T18:04:14.268Z,17.08
2022-10-20T18:06:42.001Z,16.95
2022-10-20T18:09:15.094Z,15.95
2022-10-20T18:11:52.564Z,16.05
2022-10-20T18:14:20.817Z,16.60
2022-10-20T18:16:50.464Z,15.20
2022-10-20T18:19:21.037Z,15.65
2022-10-20T18:21:48.078Z,16.55
2022-10-20T18:24:16.609Z,14.25
2022-10-20T18:26:48.392Z,16.35
2022-10-20T18:29:16.180Z,15.88
2022-10-20T18:31:45.632Z,16.10
2022-10-20T18:34:15.160Z,17.60
2022-10-20T18:36:44.952Z,15.60
2022-10-20T18:39:13.466Z,17.02
2022-10-20T18:41:41.228Z,16.90
2022-10-20T18:44:11.622Z,16.15
2022-10-20T18:46:39.334Z,16.30
2022-10-20T18:49:15.182Z,16.73
2022-10-20T18:51:42.055Z,17.40
2022-10-20T18:54:08.928Z,16.48
2022-10-20T18:56:37.603Z,15.95
2022-10-20T18:59:07.864Z,16.30
2022-10-20T19:01:36.706Z,15.85
2022-10-20T19:04:06.613Z,16.00
2022-10-20T19:06:37.527Z,14.50
2022-10-20T19:09:07.123Z,15.25
2022-10-20T19:11:41.465Z,15.05
2022-10-20T19:14:13.590Z,16.33
2022-10-20T19:16:42.903Z,16.60
2022-10-20T19:19:09.513Z,15.60
2022-10-20T19:21:36.680Z,15.18
2022-10-20T19:24:15.793Z,15.60
2022-10-20T19:26:52.785Z,16.15
2022-10-20T19:29:29.500Z,17.25
2022-10-20T19:31:58.517Z,16.33
2022-10-20T19:34:28.585Z,16.88
2022-10-20T19:37:01.094Z,16.35
2022-10-20T19:39:34.511Z,16.23
2022-10-20T19:42:02.408Z,16.88
2022-10-20T19:44:29.249Z,15.75
2022-10-20T19:46:58.248Z,15.93
2022-10-20T19:49:26.577Z,14.80
2022-10-20T19:51:53.472Z,16.00
2022-10-20T19:54:20.221Z,16.25
2022-10-20T19:56:47.001Z,15.93
2022-10-20T19:59:13.898Z,17.05
2022-10-20T20:01:40.642Z,15.18
2022-10-20T20:04:09.319Z,16.00
2022-10-20T20:06:36.056Z,16.35
2022-10-20T20:09:06.253Z,16.33
2022-10-20T20:11:36.371Z,16.45
2022-10-20T20:14:10.207Z,15.45
2022-10-20T20:16:36.986Z,16.05
2022-10-20T20:19:08.271Z,16.42
2022-10-20T20:21:35.220Z,17.23
2022-10-20T20:24:03.880Z,15.35
2022-10-20T20:26:37.777Z,16.10
2022-10-20T20:29:05.261Z,14.48
2022-10-20T20:31:34.072Z,16.17
2022-10-20T20:34:02.419Z,15.88
2022-10-20T20:36:29.064Z,15.82
2022-10-20T20:38:59.470Z,14.20
2022-10-20T20:41:30.411Z,15.05
2022-10-20T20:43:57.165Z,17.02
2022-10-20T20:46:29.131Z,17.40
2022-10-20T20:48:56.062Z,16.52
2022-10-20T20:51:22.686Z,15.52
2022-10-20T20:53:49.226Z,16.45
2022-10-20T20:56:24.561Z,14.52
2022-10-20T20:58:55.397Z,15.75
2022-10-20T21:01:30.731Z,15.77
2022-10-20T21:04:02.393Z,16.77
2022-10-20T21:06:33.895Z,16.98
2022-10-20T21:09:05.880Z,17.30
2022-10-20T21:11:34.896Z,16.27
2022-10-20T21:14:01.676Z,17.90
2022-10-20T21:16:36.436Z,17.67
2022-10-20T21:19:09.512Z,17.15
2022-10-20T21:21:44.572Z,17.17
2022-10-20T21:24:12.659Z,16.60
2022-10-20T21:26:39.362Z,17.38
2022-10-20T21:29:06.223Z,19.05
2022-10-20T21:31:32.842Z,18.08
2022-10-20T21:34:01.813Z,17.30
2022-10-20T21:36:33.232Z,18.25
2022-10-20T21:39:04.964Z,14.93
2022-10-20T21:41:33.669Z,17.35
2022-10-20T21:44:01.680Z,18.10
2022-10-20T21:46:33.950Z,16.95
2022-10-20T21:49:05.763Z,17.65
2022-10-20T21:51:36.349Z,18.00
2022-10-20T21:54:10.373Z,17.73
2022-10-20T21:56:38.623Z,19.05
2022-10-20T21:59:05.957Z,17.40
2022-10-20T22:01:32.893Z,17.27
2022-10-20T22:03:59.541Z,16.17
2022-10-20T22:06:27.854Z,16.67
2022-10-20T22:08:59.392Z,15.35
2022-10-20T22:11:29.083Z,16.50
2022-10-20T22:13:58.055Z,15.82
2022-10-20T22:16:28.736Z,15.75
2022-10-20T22:18:59.880Z,15.95
2022-10-20T22:21:27.297Z,15.75
2022-10-20T22:24:01.699Z,16.67
2022-10-20T22:26:30.524Z,16.08
2022-10-20T22:28:58.378Z,17.63
2022-10-20T22:31:26.252Z,19.40
2022-10-20T22:33:54.838Z,15.98
2022-10-20T22:36:24.279Z,15.38
2022-10-20T22:38:52.594Z,16.10
2022-10-20T22:41:19.512Z,15.98
2022-10-20T22:43:46.024Z,16.95
2022-10-20T22:46:20.327Z,17.73
2022-10-20T22:48:46.847Z,16.98
2022-10-20T22:51:13.754Z,15.73
2022-10-20T22:53:40.459Z,15.82
2022-10-20T22:56:11.710Z,16.45
2022-10-20T22:58:40.636Z,16.85
2022-10-20T23:01:11.553Z,14.52
2022-10-20T23:03:38.472Z,15.88
2022-10-20T23:06:14.124Z,15.95
2022-10-20T23:08:46.002Z,16.25
2022-10-20T23:11:14.097Z,16.15
2022-10-20T23:13:42.411Z,15.90
2022-10-20T23:16:15.299Z,13.80
2022-10-20T23:18:41.913Z,14.25
2022-10-20T23:21:10.347Z,15.32
2022-10-20T23:23:37.518Z,13.88
2022-10-20T23:26:05.336Z,15.98
2022-10-20T23:28:32.803Z,15.95
2022-10-20T23:31:11.509Z,15.98
2022-10-20T23:33:41.422Z,19.77
2022-10-20T23:36:08.745Z,18.27
2022-10-20T23:38:35.351Z,19.85
2022-10-20T23:41:02.234Z,19.08
2022-10-20T23:43:31.660Z,19.58
2022-10-20T23:45:58.266Z,18.08
2022-10-20T23:48:25.635Z,19.02
2022-10-20T23:50:52.310Z,19.10
2022-10-20T23:53:18.843Z,19.35
2022-10-20T23:55:51.818Z,17.38
2022-10-20T23:58:22.643Z,16.30
